createdAt,value
2017-02-27T00:01:35.817Z,997.75
2017-02-27T00:01:57.544Z,997.83
2017-02-27T00:02:19.328Z,997.84
2017-02-27T00:03:14.346Z,997.82
2017-02-27T00:03:36.053Z,997.83
2017-02-27T00:04:02.550Z,997.72
2017-02-27T00:04:24.282Z,997.69
2017-02-27T00:04:46.120Z,997.67
2017-02-27T00:05:12.607Z,997.81
2017-02-27T00:05:34.324Z,997.72
2017-02-27T00:05:56.080Z,997.75
2017-02-27T00:06:22.586Z,997.73
2017-02-27T00:06:44.294Z,997.74
2017-02-27T00:07:10.771Z,997.62
2017-02-27T00:07:32.584Z,997.78
2017-02-27T00:07:54.302Z,997.71
2017-02-27T00:08:16.017Z,997.68
2017-02-27T00:08:37.757Z,997.59
2017-02-27T00:09:40.898Z,997.65
2017-02-27T00:10:07.391Z,997.64
2017-02-27T00:10:29.099Z,997.76
2017-02-27T00:10:55.730Z,997.71
2017-02-27T00:11:17.458Z,997.59
2017-02-27T00:12:10.417Z,997.63
2017-02-27T00:12:32.125Z,997.63
2017-02-27T00:14:05.923Z,997.62
2017-02-27T00:14:27.660Z,997.68
2017-02-27T00:15:20.629Z,997.59
2017-02-27T00:15:42.361Z,997.66
2017-02-27T00:16:08.871Z,997.63
2017-02-27T00:16:30.757Z,997.66
2017-02-27T00:16:52.486Z,997.70
2017-02-27T00:17:18.987Z,997.65
2017-02-27T00:17:40.697Z,997.62
2017-02-27T00:18:43.794Z,997.66
2017-02-27T00:19:05.509Z,997.72
2017-02-27T00:19:27.363Z,997.63
2017-02-27T00:19:49.166Z,997.57
2017-02-27T00:20:10.925Z,997.57
2017-02-27T00:20:32.633Z,997.63
2017-02-27T00:20:59.174Z,997.58
2017-02-27T00:21:21.001Z,997.67
2017-02-27T00:21:47.530Z,997.60
2017-02-27T00:22:09.360Z,997.59
2017-02-27T00:22:57.563Z,997.61
2017-02-27T00:23:19.300Z,997.72
2017-02-27T00:24:53.159Z,997.63
2017-02-27T00:25:56.248Z,997.62
2017-02-27T00:26:18.013Z,997.54
2017-02-27T00:27:21.096Z,997.73
2017-02-27T00:27:42.841Z,997.59
2017-02-27T00:28:45.946Z,997.69
2017-02-27T00:29:07.768Z,997.62
2017-02-27T00:30:41.583Z,997.65
2017-02-27T00:31:44.120Z,997.60
2017-02-27T00:32:05.866Z,997.63
2017-02-27T00:32:27.651Z,997.64
2017-02-27T00:33:20.650Z,997.57
2017-02-27T00:34:13.657Z,997.55
2017-02-27T00:34:35.384Z,997.65
2017-02-27T00:35:38.521Z,997.62
2017-02-27T00:36:00.268Z,997.60
2017-02-27T00:37:07.542Z,997.58
2017-02-27T00:37:29.277Z,997.66
2017-02-27T00:38:22.376Z,997.57
2017-02-27T00:39:25.496Z,997.53
2017-02-27T00:39:47.238Z,997.59
2017-02-27T00:40:13.749Z,997.56
2017-02-27T00:40:35.470Z,997.57
2017-02-27T00:40:57.235Z,997.53
2017-02-27T00:41:23.756Z,997.55
2017-02-27T00:41:45.522Z,997.58
2017-02-27T00:42:12.075Z,997.59
2017-02-27T00:42:33.778Z,997.51
2017-02-27T00:42:55.492Z,997.55
2017-02-27T00:43:21.983Z,997.61
2017-02-27T00:43:43.704Z,997.61
2017-02-27T00:44:05.427Z,997.61
2017-02-27T00:44:31.894Z,997.53
2017-02-27T00:44:53.617Z,997.62
2017-02-27T00:45:59.532Z,997.50
2017-02-27T00:46:21.272Z,997.62
2017-02-27T00:46:47.808Z,997.49
2017-02-27T00:47:09.573Z,997.60
2017-02-27T00:47:36.111Z,997.49
2017-02-27T00:47:57.806Z,997.56
2017-02-27T00:48:50.798Z,997.50
2017-02-27T00:49:17.277Z,997.53
2017-02-27T00:49:38.994Z,997.60
2017-02-27T00:50:31.966Z,997.52
2017-02-27T00:51:01.397Z,997.54
2017-02-27T00:51:27.827Z,997.59
2017-02-27T00:51:54.357Z,997.65
2017-02-27T00:52:16.894Z,997.59
2017-02-27T00:52:43.463Z,997.58
2017-02-27T00:53:09.954Z,997.51
2017-02-27T00:54:13.011Z,997.42
2017-02-27T00:54:34.741Z,997.51
2017-02-27T00:55:01.235Z,997.52
2017-02-27T00:55:22.992Z,997.58
2017-02-27T00:55:49.461Z,997.53
2017-02-27T00:56:11.183Z,997.51
2017-02-27T00:56:37.674Z,997.57
2017-02-27T00:56:59.404Z,997.49
2017-02-27T00:57:25.885Z,997.40
2017-02-27T00:57:47.603Z,997.46
2017-02-27T00:58:14.079Z,997.38
2017-02-27T00:58:40.668Z,997.47
2017-02-27T00:59:02.369Z,997.52
2017-02-27T00:59:55.331Z,997.41
2017-02-27T01:00:21.851Z,997.39
2017-02-27T01:00:43.592Z,997.37
2017-02-27T01:01:05.355Z,997.37
2017-02-27T01:01:31.843Z,997.35
2017-02-27T01:01:53.598Z,997.44
2017-02-27T01:02:15.378Z,997.37
2017-02-27T01:03:08.391Z,997.46
2017-02-27T01:03:30.074Z,997.42
2017-02-27T01:04:23.041Z,997.38
2017-02-27T01:04:44.796Z,997.36
2017-02-27T01:05:37.809Z,997.43
2017-02-27T01:05:59.552Z,997.52
2017-02-27T01:06:52.565Z,997.47
2017-02-27T01:07:14.357Z,997.41
2017-02-27T01:08:07.395Z,997.45
2017-02-27T01:08:33.816Z,997.51
2017-02-27T01:08:55.563Z,997.41
2017-02-27T01:10:29.345Z,997.52
2017-02-27T01:11:22.344Z,997.41
2017-02-27T01:12:29.641Z,997.39
2017-02-27T01:12:51.372Z,997.45
2017-02-27T01:13:53.896Z,997.48
2017-02-27T01:14:15.603Z,997.34
2017-02-27T01:14:42.104Z,997.38
2017-02-27T01:15:03.815Z,997.47
2017-02-27T01:16:06.897Z,997.28
2017-02-27T01:16:28.614Z,997.42
2017-02-27T01:16:50.315Z,997.41
2017-02-27T01:17:43.336Z,997.33
2017-02-27T01:18:50.614Z,997.39
2017-02-27T01:19:12.370Z,997.39
2017-02-27T01:20:05.349Z,997.38
2017-02-27T01:20:31.871Z,997.35
2017-02-27T01:20:53.641Z,997.35
2017-02-27T01:21:46.690Z,997.33
2017-02-27T01:22:39.683Z,997.34
2017-02-27T01:23:32.697Z,997.37
2017-02-27T01:23:59.177Z,997.37
2017-02-27T01:24:20.904Z,997.39
2017-02-27T01:25:24.002Z,997.30
2017-02-27T01:25:45.731Z,997.31
2017-02-27T01:26:07.458Z,997.31
2017-02-27T01:26:33.937Z,997.32
2017-02-27T01:26:55.669Z,997.34
2017-02-27T01:27:17.418Z,997.28
2017-02-27T01:28:10.404Z,997.32
2017-02-27T01:28:32.134Z,997.23
2017-02-27T01:28:58.611Z,997.43
2017-02-27T01:29:20.352Z,997.31
2017-02-27T01:29:42.105Z,997.24
2017-02-27T01:30:08.614Z,997.19
2017-02-27T01:30:30.319Z,997.24
2017-02-27T01:30:52.054Z,997.31
2017-02-27T01:31:18.533Z,997.35
2017-02-27T01:31:40.258Z,997.30
2017-02-27T01:32:02.027Z,997.26
2017-02-27T01:32:28.517Z,997.22
2017-02-27T01:32:50.232Z,997.26
2017-02-27T01:33:11.957Z,997.21
2017-02-27T01:33:38.481Z,997.21
2017-02-27T01:34:00.195Z,997.21
2017-02-27T01:34:21.911Z,997.23
2017-02-27T01:34:48.391Z,997.25
2017-02-27T01:37:56.034Z,997.20
2017-02-27T01:38:36.403Z,997.18
2017-02-27T01:40:38.361Z,997.23
2017-02-27T01:41:18.589Z,997.19
2017-02-27T01:46:00.586Z,997.27
2017-02-27T01:46:41.010Z,997.10
2017-02-27T01:48:42.137Z,997.12
2017-02-27T01:52:43.037Z,997.02
2017-02-27T01:53:13.366Z,997.00
2017-02-27T01:53:35.125Z,997.05
2017-02-27T01:54:01.628Z,997.05
2017-02-27T01:54:23.334Z,997.07
2017-02-27T01:54:49.829Z,997.04
2017-02-27T01:55:11.551Z,997.00
2017-02-27T01:55:35.347Z,996.99
2017-02-27T01:56:01.839Z,996.99
2017-02-27T01:56:23.570Z,996.95
2017-02-27T01:56:45.295Z,997.06
2017-02-27T01:57:11.818Z,996.95
2017-02-27T01:57:33.567Z,996.90
2017-02-27T01:58:31.324Z,997.02
2017-02-27T01:59:24.303Z,996.98
2017-02-27T01:59:55.558Z,996.94
2017-02-27T02:00:17.273Z,996.91
2017-02-27T02:00:43.792Z,996.93
2017-02-27T02:01:05.523Z,996.85
2017-02-27T02:01:27.238Z,996.91
2017-02-27T02:01:53.745Z,996.92
2017-02-27T02:02:15.482Z,996.94
2017-02-27T02:02:41.967Z,996.86
2017-02-27T02:03:03.684Z,996.91
2017-02-27T02:03:25.396Z,996.86
2017-02-27T02:04:18.440Z,996.75
2017-02-27T02:04:40.243Z,996.77
2017-02-27T02:05:01.942Z,996.78
2017-02-27T02:05:23.637Z,996.80
2017-02-27T02:06:21.958Z,996.85
2017-02-27T02:06:43.667Z,996.83
2017-02-27T02:07:46.800Z,996.81
2017-02-27T02:08:08.515Z,996.83
2017-02-27T02:08:30.243Z,996.78
2017-02-27T02:09:23.286Z,996.77
2017-02-27T02:09:45.126Z,996.73
2017-02-27T02:10:06.991Z,996.78
2017-02-27T02:10:28.697Z,996.74
2017-02-27T02:10:50.514Z,996.74
2017-02-27T02:11:16.994Z,996.81
2017-02-27T02:11:43.482Z,996.67
2017-02-27T02:12:05.206Z,996.72
2017-02-27T02:12:26.956Z,996.68
2017-02-27T02:13:20.062Z,996.80
2017-02-27T02:13:41.793Z,996.80
2017-02-27T02:14:08.268Z,996.66
2017-02-27T02:14:29.977Z,996.69
2017-02-27T02:15:37.279Z,996.69
2017-02-27T02:15:59.020Z,996.68
2017-02-27T02:16:51.974Z,996.72
2017-02-27T02:17:54.496Z,996.61
2017-02-27T02:18:16.205Z,996.65
2017-02-27T02:19:09.250Z,996.64
2017-02-27T02:20:43.093Z,996.57
2017-02-27T02:21:04.915Z,996.60
2017-02-27T02:21:31.385Z,996.52
2017-02-27T02:21:53.110Z,996.51
2017-02-27T02:22:14.854Z,996.46
2017-02-27T02:22:36.655Z,996.49
2017-02-27T02:22:58.503Z,996.53
2017-02-27T02:23:24.988Z,996.57
2017-02-27T02:23:46.830Z,996.56
2017-02-27T02:24:15.366Z,996.47
2017-02-27T02:24:41.847Z,996.55
2017-02-27T02:25:08.347Z,996.45
2017-02-27T02:25:30.067Z,996.43
2017-02-27T02:26:23.085Z,996.46
2017-02-27T02:27:26.176Z,996.48
2017-02-27T02:27:47.920Z,996.54
2017-02-27T02:28:50.448Z,996.46
2017-02-27T02:29:43.462Z,996.44
2017-02-27T02:30:05.167Z,996.51
2017-02-27T02:31:12.450Z,996.41
2017-02-27T02:31:34.201Z,996.45
2017-02-27T02:31:55.911Z,996.46
2017-02-27T02:32:22.414Z,996.40
2017-02-27T02:32:44.124Z,996.49
2017-02-27T02:33:10.633Z,996.43
2017-02-27T02:33:32.378Z,996.40
2017-02-27T02:33:58.844Z,996.39
2017-02-27T02:34:20.579Z,996.44
2017-02-27T02:34:42.368Z,996.40
2017-02-27T02:35:35.347Z,996.42
2017-02-27T02:35:57.063Z,996.47
2017-02-27T02:37:00.160Z,996.39
2017-02-27T02:37:21.901Z,996.44
2017-02-27T02:37:43.619Z,996.34
2017-02-27T02:38:10.145Z,996.43
2017-02-27T02:38:31.840Z,996.37
2017-02-27T02:38:53.558Z,996.39
2017-02-27T02:39:20.134Z,996.45
2017-02-27T02:39:41.870Z,996.37
2017-02-27T02:40:03.625Z,996.39
2017-02-27T02:41:27.888Z,996.38
2017-02-27T02:41:49.700Z,996.30
2017-02-27T02:42:42.758Z,996.36
2017-02-27T02:43:41.065Z,996.32
2017-02-27T02:44:02.776Z,996.42
2017-02-27T02:44:24.480Z,996.39
2017-02-27T02:44:46.196Z,996.42
2017-02-27T02:45:07.899Z,996.35
2017-02-27T02:45:29.608Z,996.33
2017-02-27T02:45:56.131Z,996.34
2017-02-27T02:46:17.840Z,996.33
2017-02-27T02:46:44.321Z,996.33
2017-02-27T02:47:06.030Z,996.36
2017-02-27T02:47:32.518Z,996.26
2017-02-27T02:47:54.227Z,996.25
2017-02-27T02:48:15.978Z,996.33
2017-02-27T02:49:08.985Z,996.37
2017-02-27T02:50:01.959Z,996.20
2017-02-27T02:50:28.442Z,996.34
2017-02-27T02:50:50.158Z,996.28
2017-02-27T02:51:52.744Z,996.21
2017-02-27T02:52:14.572Z,996.18
2017-02-27T02:52:36.327Z,996.23
2017-02-27T02:52:58.095Z,996.17
2017-02-27T02:53:19.895Z,996.17
2017-02-27T02:54:23.000Z,996.18
2017-02-27T02:54:44.765Z,996.15
2017-02-27T02:55:16.056Z,996.25
2017-02-27T02:55:37.808Z,996.23
2017-02-27T02:56:04.491Z,996.15
2017-02-27T02:56:26.241Z,996.14
2017-02-27T02:56:47.984Z,996.15
2017-02-27T02:57:09.796Z,996.16
2017-02-27T02:57:31.582Z,996.18
2017-02-27T02:57:53.327Z,996.19
2017-02-27T02:58:15.135Z,996.13
2017-02-27T02:58:36.915Z,996.12
2017-02-27T02:58:58.749Z,996.13
2017-02-27T02:59:20.487Z,996.16
2017-02-27T02:59:42.237Z,996.13
2017-02-27T03:00:04.018Z,996.13
2017-02-27T03:00:25.969Z,996.10
2017-02-27T03:00:47.771Z,996.01
2017-02-27T03:01:09.498Z,996.17
2017-02-27T03:01:31.237Z,996.05
2017-02-27T03:01:53.056Z,996.15
2017-02-27T03:02:14.839Z,996.13
2017-02-27T03:02:36.602Z,996.12
2017-02-27T03:03:03.293Z,996.06
2017-02-27T03:03:25.093Z,996.14
2017-02-27T03:04:28.208Z,996.05
2017-02-27T03:04:49.936Z,996.05
2017-02-27T03:05:11.682Z,996.13
2017-02-27T03:05:33.450Z,996.10
2017-02-27T03:05:55.299Z,996.11
2017-02-27T03:06:17.042Z,996.09
2017-02-27T03:06:38.823Z,996.11
2017-02-27T03:07:00.610Z,996.15
2017-02-27T03:07:22.327Z,996.14
2017-02-27T03:07:44.122Z,996.19
2017-02-27T03:08:05.837Z,996.09
2017-02-27T03:08:27.575Z,996.09
2017-02-27T03:08:49.426Z,996.07
2017-02-27T03:09:11.147Z,996.12
2017-02-27T03:09:32.891Z,996.14
2017-02-27T03:09:54.632Z,996.11
2017-02-27T03:10:16.459Z,996.02
2017-02-27T03:10:38.230Z,995.96
2017-02-27T03:10:59.982Z,996.04
2017-02-27T03:11:21.865Z,996.02
2017-02-27T03:11:43.663Z,995.99
2017-02-27T03:12:05.552Z,996.04
2017-02-27T03:12:27.289Z,996.00
2017-02-27T03:13:35.315Z,996.04
2017-02-27T03:13:57.067Z,996.00
2017-02-27T03:14:19.051Z,996.02
2017-02-27T03:14:40.857Z,996.03
2017-02-27T03:15:02.636Z,995.97
2017-02-27T03:15:24.435Z,995.96
2017-02-27T03:15:46.342Z,996.04
2017-02-27T03:16:08.066Z,995.98
2017-02-27T03:16:29.815Z,996.11
2017-02-27T03:16:51.542Z,995.98
2017-02-27T03:17:13.380Z,995.93
2017-02-27T03:17:35.201Z,995.93
2017-02-27T03:17:56.912Z,995.92
2017-02-27T03:18:18.664Z,995.85
2017-02-27T03:18:40.448Z,995.98
2017-02-27T03:19:02.190Z,995.84
2017-02-27T03:19:23.961Z,995.94
2017-02-27T03:19:45.747Z,995.93
2017-02-27T03:20:07.677Z,995.87
2017-02-27T03:20:29.414Z,995.85
2017-02-27T03:20:51.161Z,995.78
2017-02-27T03:21:12.904Z,995.78
2017-02-27T03:21:34.713Z,995.83
2017-02-27T03:21:56.442Z,995.81
2017-02-27T03:22:18.231Z,995.86
2017-02-27T03:22:39.961Z,995.83
2017-02-27T03:23:01.785Z,995.84
2017-02-27T03:23:23.560Z,995.82
2017-02-27T03:23:45.340Z,995.88
2017-02-27T03:24:07.100Z,995.84
2017-02-27T03:24:28.895Z,995.77
2017-02-27T03:24:50.627Z,995.79
2017-02-27T03:25:12.397Z,995.86
2017-02-27T03:25:34.120Z,995.74
2017-02-27T03:25:55.963Z,995.73
2017-02-27T03:26:17.700Z,995.70
2017-02-27T03:26:39.433Z,995.70
2017-02-27T03:27:01.169Z,995.72
2017-02-27T03:27:23.030Z,995.76
2017-02-27T03:27:44.790Z,995.76
2017-02-27T03:28:06.552Z,995.68
2017-02-27T03:28:28.319Z,995.73
2017-02-27T03:28:50.134Z,995.72
2017-02-27T03:29:11.932Z,995.68
2017-02-27T03:29:33.654Z,995.73
2017-02-27T03:29:55.433Z,995.72
2017-02-27T03:30:17.180Z,995.82
2017-02-27T03:30:38.951Z,995.69
2017-02-27T03:31:00.681Z,995.76
2017-02-27T03:31:22.531Z,995.76
2017-02-27T03:31:44.278Z,995.75
2017-02-27T03:32:06.037Z,995.78
2017-02-27T03:32:27.804Z,995.72
2017-02-27T03:32:49.660Z,995.73
2017-02-27T03:33:11.409Z,995.75
2017-02-27T03:33:33.164Z,995.73
2017-02-27T03:33:54.912Z,995.67
2017-02-27T03:34:16.756Z,995.69
2017-02-27T03:34:38.494Z,995.75
2017-02-27T03:35:00.280Z,995.69
2017-02-27T03:35:26.930Z,995.68
2017-02-27T03:35:49.695Z,995.68
2017-02-27T03:36:11.436Z,995.73
2017-02-27T03:37:04.528Z,995.70
2017-02-27T03:37:26.315Z,995.76
2017-02-27T03:37:48.038Z,995.61
2017-02-27T03:38:09.876Z,995.63
2017-02-27T03:38:31.702Z,995.58
2017-02-27T03:38:53.491Z,995.55
2017-02-27T03:39:15.218Z,995.63
2017-02-27T03:39:37.073Z,995.60
2017-02-27T03:39:58.787Z,995.58
2017-02-27T03:40:20.577Z,995.58
2017-02-27T03:40:42.364Z,995.55
2017-02-27T03:41:04.175Z,995.62
2017-02-27T03:41:28.796Z,995.57
2017-02-27T03:42:28.861Z,995.51
2017-02-27T03:42:50.640Z,995.49
2017-02-27T03:43:12.413Z,995.53
2017-02-27T03:43:34.156Z,995.47
2017-02-27T03:43:55.976Z,995.51
2017-02-27T03:44:17.713Z,995.45
2017-02-27T03:44:39.524Z,995.45
2017-02-27T03:45:01.267Z,995.58
2017-02-27T03:45:23.081Z,995.54
2017-02-27T03:45:44.797Z,995.54
2017-02-27T03:46:06.531Z,995.51
2017-02-27T03:46:28.294Z,995.52
2017-02-27T03:46:50.132Z,995.46
2017-02-27T03:47:11.862Z,995.50
2017-02-27T03:47:33.623Z,995.50
2017-02-27T03:47:55.386Z,995.47
2017-02-27T03:48:17.197Z,995.57
2017-02-27T03:48:38.940Z,995.48
2017-02-27T03:49:00.681Z,995.53
2017-02-27T03:49:22.384Z,995.48
2017-02-27T03:49:44.182Z,995.46
2017-02-27T03:50:05.911Z,995.44
2017-02-27T03:50:27.705Z,995.44
2017-02-27T03:50:49.452Z,995.44
2017-02-27T03:51:52.733Z,995.48
2017-02-27T03:52:14.442Z,995.45
2017-02-27T03:53:07.781Z,995.53
2017-02-27T03:54:00.874Z,995.45
2017-02-27T03:54:54.004Z,995.40
2017-02-27T03:55:47.121Z,995.37
2017-02-27T03:56:40.149Z,995.35
2017-02-27T03:57:01.888Z,995.40
2017-02-27T03:57:23.913Z,995.44
2017-02-27T03:57:45.615Z,995.47
2017-02-27T03:58:07.324Z,995.44
2017-02-27T03:58:29.139Z,995.41
2017-02-27T03:58:55.641Z,995.40
2017-02-27T03:59:48.657Z,995.36
2017-02-27T04:00:10.468Z,995.40
2017-02-27T04:00:32.179Z,995.55
2017-02-27T04:00:53.932Z,995.46
2017-02-27T04:01:15.769Z,995.44
2017-02-27T04:01:37.492Z,995.43
2017-02-27T04:01:59.250Z,995.47
2017-02-27T04:02:21.005Z,995.42
2017-02-27T04:02:42.850Z,995.33
2017-02-27T04:03:04.618Z,995.32
2017-02-27T04:03:26.337Z,995.33
2017-02-27T04:03:48.188Z,995.34
2017-02-27T04:04:09.971Z,995.31
2017-02-27T04:04:31.683Z,995.40
2017-02-27T04:04:53.518Z,995.41
2017-02-27T04:05:15.237Z,995.42
2017-02-27T04:05:37.039Z,995.30
2017-02-27T04:06:40.206Z,995.33
2017-02-27T04:07:02.130Z,995.31
2017-02-27T04:07:23.865Z,995.31
2017-02-27T04:08:16.912Z,995.27
2017-02-27T04:08:38.617Z,995.28
2017-02-27T04:09:05.088Z,995.25
2017-02-27T04:09:26.818Z,995.22
2017-02-27T04:09:48.633Z,995.21
2017-02-27T04:10:10.352Z,995.27
2017-02-27T04:10:32.046Z,995.31
2017-02-27T04:11:39.335Z,995.22
2017-02-27T04:12:01.108Z,995.23
2017-02-27T04:12:27.585Z,995.26
2017-02-27T04:12:49.386Z,995.28
2017-02-27T04:13:11.324Z,995.28
2017-02-27T04:13:33.142Z,995.21
2017-02-27T04:13:54.834Z,995.24
2017-02-27T04:14:16.640Z,995.28
2017-02-27T04:15:09.814Z,995.25
2017-02-27T04:15:31.511Z,995.30
2017-02-27T04:15:53.227Z,995.22
2017-02-27T04:16:56.537Z,995.25
2017-02-27T04:17:18.342Z,995.21
2017-02-27T04:17:40.046Z,995.20
2017-02-27T04:18:01.862Z,995.22
2017-02-27T04:18:23.610Z,995.22
2017-02-27T04:18:45.307Z,995.20
2017-02-27T04:19:07.119Z,995.24
2017-02-27T04:19:28.927Z,995.25
2017-02-27T04:20:32.003Z,995.22
2017-02-27T04:20:53.801Z,995.17
2017-02-27T04:21:15.498Z,995.18
2017-02-27T04:21:37.205Z,995.19
2017-02-27T04:21:58.902Z,995.21
2017-02-27T04:22:20.711Z,995.18
2017-02-27T04:22:47.187Z,995.17
2017-02-27T04:23:08.886Z,995.25
2017-02-27T04:24:01.936Z,995.16
2017-02-27T04:24:23.741Z,995.15
2017-02-27T04:24:45.449Z,995.16
2017-02-27T04:25:07.149Z,995.14
2017-02-27T04:25:28.874Z,995.22
2017-02-27T04:25:50.586Z,995.24
2017-02-27T04:26:12.396Z,995.23
2017-02-27T04:26:34.095Z,995.19
2017-02-27T04:26:55.802Z,995.21
2017-02-27T04:27:17.506Z,995.16
2017-02-27T04:27:39.308Z,995.17
2017-02-27T04:28:32.278Z,995.09
2017-02-27T04:28:54.105Z,995.14
2017-02-27T04:29:47.057Z,995.25
2017-02-27T04:30:08.863Z,995.19
2017-02-27T04:31:01.929Z,995.19
2017-02-27T04:31:23.663Z,995.14
2017-02-27T04:32:16.646Z,995.16
2017-02-27T04:32:38.456Z,995.17
2017-02-27T04:33:04.930Z,995.25
2017-02-27T04:33:26.761Z,995.17
2017-02-27T04:33:48.603Z,995.21
2017-02-27T04:34:15.180Z,995.16
2017-02-27T04:34:36.975Z,995.21
2017-02-27T04:34:58.673Z,995.22
2017-02-27T04:35:25.149Z,995.21
2017-02-27T04:35:46.866Z,995.17
2017-02-27T04:36:08.573Z,995.17
2017-02-27T04:36:35.155Z,995.15
2017-02-27T04:36:56.937Z,995.18
2017-02-27T04:37:18.827Z,995.13
2017-02-27T04:37:45.313Z,995.15
2017-02-27T04:38:07.095Z,995.13
2017-02-27T04:38:33.701Z,995.21
2017-02-27T04:38:55.604Z,995.19
2017-02-27T04:39:22.081Z,995.18
2017-02-27T04:39:43.785Z,995.16
2017-02-27T04:40:05.500Z,995.15
2017-02-27T04:40:32.094Z,995.14
2017-02-27T04:40:53.898Z,995.18
2017-02-27T04:41:46.950Z,995.19
2017-02-27T04:42:40.092Z,995.29
2017-02-27T04:43:33.064Z,995.14
2017-02-27T04:43:59.657Z,995.21
2017-02-27T04:44:21.359Z,995.09
2017-02-27T04:45:28.637Z,995.11
2017-02-27T04:45:50.347Z,995.06
2017-02-27T04:46:53.440Z,995.07
2017-02-27T04:47:15.241Z,995.05
2017-02-27T04:47:37.040Z,995.08
2017-02-27T04:48:03.607Z,995.20
2017-02-27T04:48:25.352Z,995.06
2017-02-27T04:48:51.875Z,995.08
2017-02-27T04:49:13.618Z,995.05
2017-02-27T04:49:40.124Z,995.12
2017-02-27T04:50:01.917Z,995.12
2017-02-27T04:50:23.634Z,995.03
2017-02-27T04:50:50.117Z,995.07
2017-02-27T04:51:11.933Z,995.03
2017-02-27T04:51:38.407Z,995.12
2017-02-27T04:52:00.173Z,995.00
2017-02-27T04:52:26.646Z,994.87
2017-02-27T04:52:48.457Z,995.01
2017-02-27T04:53:10.169Z,995.00
2017-02-27T04:53:31.891Z,995.01
2017-02-27T04:53:53.598Z,994.97
2017-02-27T04:54:46.571Z,994.93
2017-02-27T04:55:13.048Z,994.95
2017-02-27T04:55:34.867Z,994.91
2017-02-27T04:55:56.585Z,994.94
2017-02-27T04:56:23.066Z,994.87
2017-02-27T04:56:44.870Z,994.79
2017-02-27T04:57:06.596Z,994.77
2017-02-27T04:57:59.782Z,994.72
2017-02-27T04:58:26.268Z,994.73
2017-02-27T04:58:48.099Z,994.81
2017-02-27T04:59:14.751Z,994.89
2017-02-27T04:59:36.570Z,994.99
2017-02-27T04:59:58.476Z,994.88
2017-02-27T05:00:24.949Z,994.86
2017-02-27T05:00:46.748Z,994.86
2017-02-27T05:01:45.177Z,994.79
2017-02-27T05:02:06.898Z,994.76
2017-02-27T05:02:28.709Z,994.71
2017-02-27T05:02:50.517Z,994.67
2017-02-27T05:03:12.210Z,994.74
2017-02-27T05:04:05.177Z,994.86
2017-02-27T05:04:27.016Z,994.77
2017-02-27T05:04:53.491Z,994.89
2017-02-27T05:05:15.189Z,994.85
2017-02-27T05:06:08.243Z,994.81
2017-02-27T05:07:01.253Z,994.70
2017-02-27T05:07:54.257Z,994.80
2017-02-27T05:08:20.852Z,994.82
2017-02-27T05:08:42.554Z,994.67
2017-02-27T05:09:04.261Z,994.66
2017-02-27T05:09:25.970Z,994.77
2017-02-27T05:09:47.772Z,994.68
2017-02-27T05:10:09.479Z,994.64
2017-02-27T05:10:31.192Z,994.63
2017-02-27T05:10:52.889Z,994.55
2017-02-27T05:11:14.715Z,994.63
2017-02-27T05:11:41.224Z,994.62
2017-02-27T05:12:03.022Z,994.70
2017-02-27T05:12:55.981Z,994.65
2017-02-27T05:13:17.690Z,994.75
2017-02-27T05:13:39.497Z,994.74
2017-02-27T05:14:01.197Z,994.64
2017-02-27T05:14:27.695Z,994.74
2017-02-27T05:14:49.382Z,994.69
2017-02-27T05:15:42.540Z,994.61
2017-02-27T05:16:35.671Z,994.61
2017-02-27T05:17:28.675Z,994.57
2017-02-27T05:17:50.501Z,994.55
2017-02-27T05:18:12.218Z,994.66
2017-02-27T05:18:33.945Z,994.56
2017-02-27T05:18:55.680Z,994.61
2017-02-27T05:19:22.181Z,994.60
2017-02-27T05:19:43.950Z,994.49
2017-02-27T05:20:10.466Z,994.57
2017-02-27T05:20:32.319Z,994.65
2017-02-27T05:20:58.837Z,994.53
2017-02-27T05:21:20.718Z,994.68
2017-02-27T05:21:47.353Z,994.55
2017-02-27T05:22:08.997Z,994.50
2017-02-27T05:22:35.608Z,994.55
2017-02-27T05:22:57.269Z,994.51
2017-02-27T05:23:19.013Z,994.44
2017-02-27T05:24:12.082Z,994.48
2017-02-27T05:25:15.172Z,994.46
2017-02-27T05:25:37.054Z,994.48
2017-02-27T05:26:40.465Z,994.45
2017-02-27T05:27:02.201Z,994.43
2017-02-27T05:27:55.191Z,994.52
2017-02-27T05:28:21.688Z,994.48
2017-02-27T05:28:43.425Z,994.48
2017-02-27T05:29:09.899Z,994.45
2017-02-27T05:29:31.746Z,994.52
2017-02-27T05:29:53.473Z,994.51
2017-02-27T05:30:46.827Z,994.49
2017-02-27T05:31:08.689Z,994.48
2017-02-27T05:31:35.326Z,994.48
2017-02-27T05:31:57.172Z,994.42
2017-02-27T05:32:18.796Z,994.42
2017-02-27T05:32:45.378Z,994.39
2017-02-27T05:33:07.131Z,994.43
2017-02-27T05:33:33.715Z,994.51
2017-02-27T05:33:55.499Z,994.46
2017-02-27T05:34:21.972Z,994.41
2017-02-27T05:34:43.804Z,994.41
2017-02-27T05:35:10.295Z,994.39
2017-02-27T05:35:32.203Z,994.44
2017-02-27T05:35:53.945Z,994.48
2017-02-27T05:36:20.526Z,994.48
2017-02-27T05:36:42.254Z,994.41
2017-02-27T05:37:35.290Z,994.37
2017-02-27T05:38:28.270Z,994.37
2017-02-27T05:39:21.366Z,994.31
2017-02-27T05:40:23.881Z,994.40
2017-02-27T05:40:45.641Z,994.39
2017-02-27T05:41:48.265Z,994.41
2017-02-27T05:42:09.973Z,994.33
2017-02-27T05:42:31.875Z,994.34
2017-02-27T05:42:58.515Z,994.39
2017-02-27T05:43:20.167Z,994.29
2017-02-27T05:43:41.976Z,994.36
2017-02-27T05:44:08.488Z,994.36
2017-02-27T05:44:30.223Z,994.33
2017-02-27T05:45:37.528Z,994.38
2017-02-27T05:45:59.342Z,994.34
2017-02-27T05:47:02.407Z,994.28
2017-02-27T05:47:24.208Z,994.27
2017-02-27T05:47:45.928Z,994.40
2017-02-27T05:48:38.981Z,994.28
2017-02-27T05:49:05.476Z,994.25
2017-02-27T05:49:27.191Z,994.28
2017-02-27T05:50:30.377Z,994.33
2017-02-27T05:50:52.103Z,994.39
2017-02-27T05:51:59.387Z,994.36
2017-02-27T05:52:21.134Z,994.30
2017-02-27T05:53:28.423Z,994.27
2017-02-27T05:53:50.135Z,994.40
2017-02-27T05:54:53.447Z,994.28
2017-02-27T05:55:15.173Z,994.36
2017-02-27T05:56:08.146Z,994.35
2017-02-27T05:56:34.632Z,994.34
2017-02-27T05:56:56.354Z,994.32
2017-02-27T05:57:59.561Z,994.44
2017-02-27T05:58:21.267Z,994.30
2017-02-27T05:59:24.452Z,994.29
2017-02-27T05:59:46.167Z,994.40
2017-02-27T06:00:07.891Z,994.41
2017-02-27T06:00:29.718Z,994.35
2017-02-27T06:00:51.422Z,994.37
2017-02-27T06:01:17.893Z,994.30
2017-02-27T06:01:39.640Z,994.45
2017-02-27T06:02:01.390Z,994.44
2017-02-27T06:02:59.855Z,994.31
2017-02-27T06:03:21.556Z,994.36
2017-02-27T06:03:43.267Z,994.39
2017-02-27T06:04:36.219Z,994.30
2017-02-27T06:05:43.497Z,994.29
2017-02-27T06:06:05.310Z,994.34
2017-02-27T06:06:31.796Z,994.32
2017-02-27T06:06:53.499Z,994.39
2017-02-27T06:07:19.988Z,994.33
2017-02-27T06:07:41.769Z,994.39
2017-02-27T06:08:44.872Z,994.37
2017-02-27T06:09:06.696Z,994.35
2017-02-27T06:10:13.995Z,994.34
2017-02-27T06:10:35.783Z,994.34
2017-02-27T06:11:34.138Z,994.36
2017-02-27T06:11:55.939Z,994.31
2017-02-27T06:12:22.426Z,994.41
2017-02-27T06:12:44.133Z,994.30
2017-02-27T06:13:10.623Z,994.37
2017-02-27T06:13:32.413Z,994.32
2017-02-27T06:13:54.144Z,994.33
2017-02-27T06:14:20.635Z,994.27
2017-02-27T06:14:42.437Z,994.34
2017-02-27T06:15:44.961Z,994.42
2017-02-27T06:16:38.035Z,994.36
2017-02-27T06:17:04.518Z,994.36
2017-02-27T06:17:26.357Z,994.28
2017-02-27T06:17:52.837Z,994.29
2017-02-27T06:18:14.590Z,994.32
2017-02-27T06:18:41.075Z,994.26
2017-02-27T06:19:02.893Z,994.34
2017-02-27T06:19:29.474Z,994.42
2017-02-27T06:19:51.195Z,994.32
2017-02-27T06:20:17.788Z,994.37
2017-02-27T06:20:44.383Z,994.38
2017-02-27T06:21:06.310Z,994.28
2017-02-27T06:21:32.806Z,994.26
2017-02-27T06:21:54.531Z,994.25
2017-02-27T06:22:21.008Z,994.26